Hovedside
METAR-TAF:

METAR-TAF

Lufthavner :

Björneborg, Finland

Björneborg lufthavn

breddegrad: 61-28N, lengdegrad: 021-48E, høyde over havet: 13 m

Gjeldene værobservasjon

Denne rapporten ble laget for 18 minutter siden, klokken 07:20 UTC
Vind 13 kt fra Nordvest
Temperatur 7°C
Luftfuktighet 76%
Trykk 1001 hPa
Sikt 10 km eller mer
ingen skyer under 1500 m og ingen bygeskyer

METAR: EFPO 210720Z AUTO 32013KT CAVOK 07/03 Q1001

Tid: 10:38 (07:38 UTC)

Varsel

Denne rapporten ble laget for 14 timer og 13 minutter siden, klokken 17:25 UTC
Varsel gyldig fra 20. klokken 18 UTC til 20. klokken 22 UTC
Vind 5 kt fra Vest
Sikt 10 km eller mer
ingen skyer under 1500 m og ingen bygeskyer

TAF: EFPO 201725Z 2018/2022 27005KT CAVOK

Værobservasjoner og værvarsel for over 4000 flyplasser (METAR- og TAF-rapporter).

Tilgjengelige stasjoner er representert av de røde og gule prikkene på kartet.

Hold musepekeren over prikken for å se navnet på stasjonen.

Klikk så for å se værobservasjoner og -varsler.

For å forandre kartet kan du klikke på den grønne knappen med svart kryss for å zoome inn, på den grønne knappen med strek for å zoome ut, eller på de grønne pilene for å se tilstøtende kart.


METAR-TAF: